Pagrindinis puslapis
METAR-TAF:

METAR-TAF

Oro uostai :

Dawadmi, Saudo Arabija

platuma: 24-26-59N, ilguma: 044-07-16E, Aukštis: 922 m

Dabartinis oras

Ataskaita buvo paskelbta 2 valandos ir 59 minutes, ne 21:00 UTC
Vėjas 5 kt iš Pietų/Pietvakarių
Temperatūra 26°C
Drėgmė 32%
Slėgis 1014 hPa
Matomumas: 9000 m

METAR: OEDM 072100Z 21005KT 9000 NSC 26/08 Q1014

Laikas: 02:59 (23:59 UTC)


TAF: trūkstamas

Orai ataskaitas ir orų prognozės (METAR, TAF).

turimą stotys yra geltonos ir raudonos taškus žemėlapyje.

Perkelti pele per norėdami pamatyti stoties vardą.

Tada spustelėkite, norėdami matyti oro stebėjimo ir prognozės.

Norėdami pakeisti žemėlapį: spustelėkite ant žalios mygtukų su juodo kryžiaus žemyn,; žalią mygtuką su brūkšneliu, jei norite nutolinti; arba žalių rodyklių gretimoms žemėlapius.


METAR-TAF: